sensor_id;sensor_type;location;lat;lon;timestamp;temperature;humidity
27803;DHT22;15182;48.174;11.562;2023-07-22T00:01:01;21.60;91.40
27803;DHT22;15182;48.174;11.562;2023-07-22T00:03:29;21.60;91.30
27803;DHT22;15182;48.174;11.562;2023-07-22T00:06:04;21.60;91.30
27803;DHT22;15182;48.174;11.562;2023-07-22T00:08:32;21.60;91.40
27803;DHT22;15182;48.174;11.562;2023-07-22T00:11:00;21.50;91.30
27803;DHT22;15182;48.174;11.562;2023-07-22T00:13:29;21.50;91.30
27803;DHT22;15182;48.174;11.562;2023-07-22T00:15:58;21.50;91.40
27803;DHT22;15182;48.174;11.562;2023-07-22T00:22:03;21.50;91.50
27803;DHT22;15182;48.174;11.562;2023-07-22T00:24:31;21.50;91.60
27803;DHT22;15182;48.174;11.562;2023-07-22T00:26:58;21.50;91.50
27803;DHT22;15182;48.174;11.562;2023-07-22T00:29:26;21.50;91.70
27803;DHT22;15182;48.174;11.562;2023-07-22T00:31:54;21.50;91.70
27803;DHT22;15182;48.174;11.562;2023-07-22T00:34:23;21.50;91.70
27803;DHT22;15182;48.174;11.562;2023-07-22T00:36:51;21.50;91.80
27803;DHT22;15182;48.174;11.562;2023-07-22T00:46:31;21.50;91.80
27803;DHT22;15182;48.174;11.562;2023-07-22T00:48:59;21.40;91.80
27803;DHT22;15182;48.174;11.562;2023-07-22T00:51:28;21.40;91.80
27803;DHT22;15182;48.174;11.562;2023-07-22T00:53:56;21.40;91.80
27803;DHT22;15182;48.174;11.562;2023-07-22T00:56:25;21.40;91.80
27803;DHT22;15182;48.174;11.562;2023-07-22T00:58:53;21.40;92.30
27803;DHT22;15182;48.174;11.562;2023-07-22T01:01:21;21.40;91.80
27803;DHT22;15182;48.174;11.562;2023-07-22T01:03:49;21.40;91.80
27803;DHT22;15182;48.174;11.562;2023-07-22T01:06:17;21.40;91.80
27803;DHT22;15182;48.174;11.562;2023-07-22T01:08:48;21.40;91.90
27803;DHT22;15182;48.174;11.562;2023-07-22T01:11:16;21.30;91.90
27803;DHT22;15182;48.174;11.562;2023-07-22T01:13:44;21.30;91.90
27803;DHT22;15182;48.174;11.562;2023-07-22T01:16:12;21.30;91.90
27803;DHT22;15182;48.174;11.562;2023-07-22T01:18:40;21.30;92.30
27803;DHT22;15182;48.174;11.562;2023-07-22T01:21:08;21.30;91.90
27803;DHT22;15182;48.174;11.562;2023-07-22T01:23:38;21.30;91.90
27803;DHT22;15182;48.174;11.562;2023-07-22T01:26:06;21.30;92.00
27803;DHT22;15182;48.174;11.562;2023-07-22T01:28:35;21.30;91.90
27803;DHT22;15182;48.174;11.562;2023-07-22T01:31:03;21.30;91.80
27803;DHT22;15182;48.174;11.562;2023-07-22T01:33:31;21.30;91.90
27803;DHT22;15182;48.174;11.562;2023-07-22T01:36:00;21.30;91.90
27803;DHT22;15182;48.174;11.562;2023-07-22T01:38:28;21.30;91.90
27803;DHT22;15182;48.174;11.562;2023-07-22T01:40:58;21.30;91.90
27803;DHT22;15182;48.174;11.562;2023-07-22T01:43:26;21.30;92.30
27803;DHT22;15182;48.174;11.562;2023-07-22T01:45:54;21.30;91.90
27803;DHT22;15182;48.174;11.562;2023-07-22T01:48:22;21.30;92.00
27803;DHT22;15182;48.174;11.562;2023-07-22T01:50:50;21.30;92.00
27803;DHT22;15182;48.174;11.562;2023-07-22T01:53:18;21.30;92.10
27803;DHT22;15182;48.174;11.562;2023-07-22T01:55:45;21.30;92.20
27803;DHT22;15182;48.174;11.562;2023-07-22T01:58:15;21.30;92.20
27803;DHT22;15182;48.174;11.562;2023-07-22T02:00:43;21.30;92.30
27803;DHT22;15182;48.174;11.562;2023-07-22T02:03:10;21.30;92.20
27803;DHT22;15182;48.174;11.562;2023-07-22T02:05:38;21.30;92.20
27803;DHT22;15182;48.174;11.562;2023-07-22T02:08:09;21.30;92.20
27803;DHT22;15182;48.174;11.562;2023-07-22T02:10:37;21.30;92.30
27803;DHT22;15182;48.174;11.562;2023-07-22T02:13:05;21.30;92.20
27803;DHT22;15182;48.174;11.562;2023-07-22T02:15:34;21.30;92.20
27803;DHT22;15182;48.174;11.562;2023-07-22T02:18:03;21.30;92.40
27803;DHT22;15182;48.174;11.562;2023-07-22T02:20:31;21.30;92.40
27803;DHT22;15182;48.174;11.562;2023-07-22T02:22:59;21.30;92.40
27803;DHT22;15182;48.174;11.562;2023-07-22T02:25:27;21.30;92.40
27803;DHT22;15182;48.174;11.562;2023-07-22T02:27:54;21.30;92.80
27803;DHT22;15182;48.174;11.562;2023-07-22T02:30:22;21.30;92.40
27803;DHT22;15182;48.174;11.562;2023-07-22T02:32:51;21.30;92.50
27803;DHT22;15182;48.174;11.562;2023-07-22T02:35:19;21.40;92.90
27803;DHT22;15182;48.174;11.562;2023-07-22T02:37:47;21.30;92.50
27803;DHT22;15182;48.174;11.562;2023-07-22T02:40:15;21.40;92.60
27803;DHT22;15182;48.174;11.562;2023-07-22T02:42:43;21.40;92.50
27803;DHT22;15182;48.174;11.562;2023-07-22T02:45:10;21.30;92.50
27803;DHT22;15182;48.174;11.562;2023-07-22T02:47:38;21.30;93.00
27803;DHT22;15182;48.174;11.562;2023-07-22T02:50:08;21.30;92.60
27803;DHT22;15182;48.174;11.562;2023-07-22T02:52:37;21.30;92.70
27803;DHT22;15182;48.174;11.562;2023-07-22T02:55:09;21.30;92.70
27803;DHT22;15182;48.174;11.562;2023-07-22T02:57:38;21.30;92.70
27803;DHT22;15182;48.174;11.562;2023-07-22T03:00:07;21.30;92.70
27803;DHT22;15182;48.174;11.562;2023-07-22T03:02:38;21.30;92.80
27803;DHT22;15182;48.174;11.562;2023-07-22T03:05:08;21.30;92.90
27803;DHT22;15182;48.174;11.562;2023-07-22T03:07:38;21.30;92.90
27803;DHT22;15182;48.174;11.562;2023-07-22T03:10:07;21.30;93.00
27803;DHT22;15182;48.174;11.562;2023-07-22T03:12:36;21.30;93.00
27803;DHT22;15182;48.174;11.562;2023-07-22T03:19:11;21.40;93.20
27803;DHT22;15182;48.174;11.562;2023-07-22T03:21:40;21.30;93.00
27803;DHT22;15182;48.174;11.562;2023-07-22T03:24:09;21.40;93.20
27803;DHT22;15182;48.174;11.562;2023-07-22T03:26:37;21.30;93.10
27803;DHT22;15182;48.174;11.562;2023-07-22T03:29:04;21.30;93.20
27803;DHT22;15182;48.174;11.562;2023-07-22T03:31:32;21.30;93.60
27803;DHT22;15182;48.174;11.562;2023-07-22T03:34:00;21.30;93.20
27803;DHT22;15182;48.174;11.562;2023-07-22T03:36:28;21.30;93.30
27803;DHT22;15182;48.174;11.562;2023-07-22T03:38:57;21.30;93.30
27803;DHT22;15182;48.174;11.562;2023-07-22T03:41:25;21.30;93.40
27803;DHT22;15182;48.174;11.562;2023-07-22T03:43:53;21.30;93.40
27803;DHT22;15182;48.174;11.562;2023-07-22T03:46:20;21.30;93.40
27803;DHT22;15182;48.174;11.562;2023-07-22T03:48:48;21.20;93.50
27803;DHT22;15182;48.174;11.562;2023-07-22T03:51:17;21.20;93.50
27803;DHT22;15182;48.174;11.562;2023-07-22T03:53:44;21.20;93.60
27803;DHT22;15182;48.174;11.562;2023-07-22T03:56:14;21.20;93.60
27803;DHT22;15182;48.174;11.562;2023-07-22T03:58:41;21.20;93.60
27803;DHT22;15182;48.174;11.562;2023-07-22T04:01:11;21.20;93.60
27803;DHT22;15182;48.174;11.562;2023-07-22T04:03:39;21.20;93.70
27803;DHT22;15182;48.174;11.562;2023-07-22T04:06:07;21.20;93.70
27803;DHT22;15182;48.174;11.562;2023-07-22T04:08:34;21.20;93.70
27803;DHT22;15182;48.174;11.562;2023-07-22T04:11:02;21.10;93.70
27803;DHT22;15182;48.174;11.562;2023-07-22T04:13:32;21.10;93.70
27803;DHT22;15182;48.174;11.562;2023-07-22T04:15:59;21.10;94.20
27803;DHT22;15182;48.174;11.562;2023-07-22T04:18:28;21.10;93.80
27803;DHT22;15182;48.174;11.562;2023-07-22T04:21:00;21.00;93.90
27803;DHT22;15182;48.174;11.562;2023-07-22T04:23:28;21.00;94.00
27803;DHT22;15182;48.174;11.562;2023-07-22T04:25:57;21.00;94.00
27803;DHT22;15182;48.174;11.562;2023-07-22T04:28:25;21.00;94.00
27803;DHT22;15182;48.174;11.562;2023-07-22T04:30:59;21.00;94.10
27803;DHT22;15182;48.174;11.562;2023-07-22T04:33:27;20.90;94.60
27803;DHT22;15182;48.174;11.562;2023-07-22T04:35:57;20.90;94.20
27803;DHT22;15182;48.174;11.562;2023-07-22T04:38:26;20.90;94.20
27803;DHT22;15182;48.174;11.562;2023-07-22T04:40:54;20.90;94.60
27803;DHT22;15182;48.174;11.562;2023-07-22T04:43:22;20.90;94.30
27803;DHT22;15182;48.174;11.562;2023-07-22T04:45:50;20.90;94.40
27803;DHT22;15182;48.174;11.562;2023-07-22T04:48:20;20.90;94.40
27803;DHT22;15182;48.174;11.562;2023-07-22T04:50:49;20.90;94.50
27803;DHT22;15182;48.174;11.562;2023-07-22T04:53:17;20.90;94.40
27803;DHT22;15182;48.174;11.562;2023-07-22T04:55:45;20.90;94.40
27803;DHT22;15182;48.174;11.562;2023-07-22T04:58:13;20.90;94.40
27803;DHT22;15182;48.174;11.562;2023-07-22T05:00:41;20.90;94.50
27803;DHT22;15182;48.174;11.562;2023-07-22T05:03:09;21.00;94.40
27803;DHT22;15182;48.174;11.562;2023-07-22T05:05:38;21.00;94.40
27803;DHT22;15182;48.174;11.562;2023-07-22T05:08:06;21.00;94.40
27803;DHT22;15182;48.174;11.562;2023-07-22T05:10:34;21.00;94.40
27803;DHT22;15182;48.174;11.562;2023-07-22T05:13:03;21.00;94.40
27803;DHT22;15182;48.174;11.562;2023-07-22T05:15:31;21.00;94.40
27803;DHT22;15182;48.174;11.562;2023-07-22T05:17:59;21.00;94.50
27803;DHT22;15182;48.174;11.562;2023-07-22T05:20:27;21.10;94.40
27803;DHT22;15182;48.174;11.562;2023-07-22T05:22:56;21.10;94.30
27803;DHT22;15182;48.174;11.562;2023-07-22T05:25:24;21.10;94.30
27803;DHT22;15182;48.174;11.562;2023-07-22T05:27:52;21.10;94.30
27803;DHT22;15182;48.174;11.562;2023-07-22T05:30:20;21.10;94.30
27803;DHT22;15182;48.174;11.562;2023-07-22T05:32:51;21.10;94.40
27803;DHT22;15182;48.174;11.562;2023-07-22T05:35:19;21.10;94.40
27803;DHT22;15182;48.174;11.562;2023-07-22T05:37:47;21.10;94.30
27803;DHT22;15182;48.174;11.562;2023-07-22T05:40:16;21.10;94.60
27803;DHT22;15182;48.174;11.562;2023-07-22T05:42:44;21.10;94.30
27803;DHT22;15182;48.174;11.562;2023-07-22T05:45:12;21.10;94.20
27803;DHT22;15182;48.174;11.562;2023-07-22T05:47:42;21.10;94.20
27803;DHT22;15182;48.174;11.562;2023-07-22T05:50:09;21.20;94.10
27803;DHT22;15182;48.174;11.562;2023-07-22T05:52:37;21.20;94.10
27803;DHT22;15182;48.174;11.562;2023-07-22T05:55:05;21.20;94.20
27803;DHT22;15182;48.174;11.562;2023-07-22T05:57:35;21.20;94.00
27803;DHT22;15182;48.174;11.562;2023-07-22T06:00:03;21.20;94.00
27803;DHT22;15182;48.174;11.562;2023-07-22T06:02:38;21.20;94.00
27803;DHT22;15182;48.174;11.562;2023-07-22T06:05:07;21.30;93.90
27803;DHT22;15182;48.174;11.562;2023-07-22T06:07:35;21.30;93.90
27803;DHT22;15182;48.174;11.562;2023-07-22T06:10:03;21.30;93.90
27803;DHT22;15182;48.174;11.562;2023-07-22T06:12:31;21.30;93.90
27803;DHT22;15182;48.174;11.562;2023-07-22T06:15:00;21.30;93.80
27803;DHT22;15182;48.174;11.562;2023-07-22T06:17:28;21.40;93.70
27803;DHT22;15182;48.174;11.562;2023-07-22T06:19:56;21.40;93.60
27803;DHT22;15182;48.174;11.562;2023-07-22T06:22:24;21.40;93.30
27803;DHT22;15182;48.174;11.562;2023-07-22T06:24:52;21.40;93.30
27803;DHT22;15182;48.174;11.562;2023-07-22T06:27:20;21.50;93.30
27803;DHT22;15182;48.174;11.562;2023-07-22T06:29:48;21.50;93.10
27803;DHT22;15182;48.174;11.562;2023-07-22T06:32:17;21.50;93.10
27803;DHT22;15182;48.174;11.562;2023-07-22T06:34:45;21.50;93.20
27803;DHT22;15182;48.174;11.562;2023-07-22T06:37:12;21.60;93.10
27803;DHT22;15182;48.174;11.562;2023-07-22T06:39:40;21.60;93.10
27803;DHT22;15182;48.174;11.562;2023-07-22T06:42:08;21.70;92.70
27803;DHT22;15182;48.174;11.562;2023-07-22T06:44:36;21.70;93.00
27803;DHT22;15182;48.174;11.562;2023-07-22T06:47:04;21.80;92.70
27803;DHT22;15182;48.174;11.562;2023-07-22T06:49:33;21.90;92.50
27803;DHT22;15182;48.174;11.562;2023-07-22T06:52:01;21.90;92.40
27803;DHT22;15182;48.174;11.562;2023-07-22T06:54:29;22.00;92.40
27803;DHT22;15182;48.174;11.562;2023-07-22T06:56:57;22.00;92.30
27803;DHT22;15182;48.174;11.562;2023-07-22T06:59:25;22.10;92.20
27803;DHT22;15182;48.174;11.562;2023-07-22T07:01:53;22.10;92.30
27803;DHT22;15182;48.174;11.562;2023-07-22T07:04:21;22.20;92.20
27803;DHT22;15182;48.174;11.562;2023-07-22T07:06:50;22.20;91.90
27803;DHT22;15182;48.174;11.562;2023-07-22T07:09:18;22.30;91.50
27803;DHT22;15182;48.174;11.562;2023-07-22T07:11:46;22.30;91.40
27803;DHT22;15182;48.174;11.562;2023-07-22T07:14:13;22.40;91.70
27803;DHT22;15182;48.174;11.562;2023-07-22T07:16:41;22.40;91.30
27803;DHT22;15182;48.174;11.562;2023-07-22T07:19:09;22.50;91.20
27803;DHT22;15182;48.174;11.562;2023-07-22T07:21:37;22.60;90.90
27803;DHT22;15182;48.174;11.562;2023-07-22T07:24:07;22.70;90.70
27803;DHT22;15182;48.174;11.562;2023-07-22T07:26:35;22.70;90.40
27803;DHT22;15182;48.174;11.562;2023-07-22T07:29:03;22.80;90.30
27803;DHT22;15182;48.174;11.562;2023-07-22T07:31:31;22.80;90.40
27803;DHT22;15182;48.174;11.562;2023-07-22T07:33:58;22.90;90.00
27803;DHT22;15182;48.174;11.562;2023-07-22T07:36:26;22.90;90.00
27803;DHT22;15182;48.174;11.562;2023-07-22T07:38:54;22.90;89.40
27803;DHT22;15182;48.174;11.562;2023-07-22T07:41:23;23.00;89.20
27803;DHT22;15182;48.174;11.562;2023-07-22T07:43:51;23.00;88.70
27803;DHT22;15182;48.174;11.562;2023-07-22T07:46:20;23.10;88.60
27803;DHT22;15182;48.174;11.562;2023-07-22T07:48:50;23.10;88.30
27803;DHT22;15182;48.174;11.562;2023-07-22T07:51:20;23.10;88.30
27803;DHT22;15182;48.174;11.562;2023-07-22T07:53:49;23.20;88.40
27803;DHT22;15182;48.174;11.562;2023-07-22T07:56:18;23.20;88.10
27803;DHT22;15182;48.174;11.562;2023-07-22T07:58:49;23.30;88.40
27803;DHT22;15182;48.174;11.562;2023-07-22T08:01:17;23.30;87.30
27803;DHT22;15182;48.174;11.562;2023-07-22T08:03:45;23.40;87.40
27803;DHT22;15182;48.174;11.562;2023-07-22T08:06:13;23.50;87.70
27803;DHT22;15182;48.174;11.562;2023-07-22T08:08:41;23.60;87.30
27803;DHT22;15182;48.174;11.562;2023-07-22T08:11:10;23.70;86.80
27803;DHT22;15182;48.174;11.562;2023-07-22T08:13:41;23.80;86.50
27803;DHT22;15182;48.174;11.562;2023-07-22T08:16:12;23.90;86.20
27803;DHT22;15182;48.174;11.562;2023-07-22T08:18:40;24.00;85.50
27803;DHT22;15182;48.174;11.562;2023-07-22T08:21:08;24.10;85.50
27803;DHT22;15182;48.174;11.562;2023-07-22T08:23:37;24.10;85.10
27803;DHT22;15182;48.174;11.562;2023-07-22T08:26:05;24.20;84.90
27803;DHT22;15182;48.174;11.562;2023-07-22T08:28:34;24.30;84.80
27803;DHT22;15182;48.174;11.562;2023-07-22T08:31:02;24.30;84.10
27803;DHT22;15182;48.174;11.562;2023-07-22T08:33:31;24.40;84.30
27803;DHT22;15182;48.174;11.562;2023-07-22T08:35:59;24.40;84.30
27803;DHT22;15182;48.174;11.562;2023-07-22T08:38:28;24.50;83.60
27803;DHT22;15182;48.174;11.562;2023-07-22T08:40:56;24.60;83.30
27803;DHT22;15182;48.174;11.562;2023-07-22T08:43:24;24.60;83.10
27803;DHT22;15182;48.174;11.562;2023-07-22T08:46:00;24.70;82.50
27803;DHT22;15182;48.174;11.562;2023-07-22T08:48:31;24.70;81.20
27803;DHT22;15182;48.174;11.562;2023-07-22T08:51:03;24.80;81.70
27803;DHT22;15182;48.174;11.562;2023-07-22T08:53:34;24.80;80.90
27803;DHT22;15182;48.174;11.562;2023-07-22T08:56:04;24.90;80.40
27803;DHT22;15182;48.174;11.562;2023-07-22T08:58:32;25.00;79.70
27803;DHT22;15182;48.174;11.562;2023-07-22T09:01:02;25.00;79.30
27803;DHT22;15182;48.174;11.562;2023-07-22T09:03:32;25.00;79.30
27803;DHT22;15182;48.174;11.562;2023-07-22T09:06:00;25.10;79.40
27803;DHT22;15182;48.174;11.562;2023-07-22T09:08:29;25.20;78.80
27803;DHT22;15182;48.174;11.562;2023-07-22T09:10:57;25.30;78.50
27803;DHT22;15182;48.174;11.562;2023-07-22T09:13:26;25.40;78.00
27803;DHT22;15182;48.174;11.562;2023-07-22T09:15:57;25.40;77.10
27803;DHT22;15182;48.174;11.562;2023-07-22T09:18:25;25.50;76.00
27803;DHT22;15182;48.174;11.562;2023-07-22T09:20:54;25.60;76.60
27803;DHT22;15182;48.174;11.562;2023-07-22T09:23:32;25.70;76.10
27803;DHT22;15182;48.174;11.562;2023-07-22T09:26:10;25.70;73.40
27803;DHT22;15182;48.174;11.562;2023-07-22T09:28:50;25.80;73.70
27803;DHT22;15182;48.174;11.562;2023-07-22T09:31:20;25.90;73.60
27803;DHT22;15182;48.174;11.562;2023-07-22T09:33:48;26.00;73.80
27803;DHT22;15182;48.174;11.562;2023-07-22T09:36:18;26.10;73.50
27803;DHT22;15182;48.174;11.562;2023-07-22T09:38:46;26.10;73.00
27803;DHT22;15182;48.174;11.562;2023-07-22T09:41:28;26.10;72.70
27803;DHT22;15182;48.174;11.562;2023-07-22T09:44:02;26.20;72.40
27803;DHT22;15182;48.174;11.562;2023-07-22T09:46:31;26.30;71.30
27803;DHT22;15182;48.174;11.562;2023-07-22T09:49:02;26.40;71.80
27803;DHT22;15182;48.174;11.562;2023-07-22T09:51:35;26.50;71.70
27803;DHT22;15182;48.174;11.562;2023-07-22T09:54:05;26.50;71.20
27803;DHT22;15182;48.174;11.562;2023-07-22T09:56:44;26.60;71.70
27803;DHT22;15182;48.174;11.562;2023-07-22T09:59:13;26.70;70.60
27803;DHT22;15182;48.174;11.562;2023-07-22T10:01:43;26.90;71.50
27803;DHT22;15182;48.174;11.562;2023-07-22T10:04:12;27.00;71.00
27803;DHT22;15182;48.174;11.562;2023-07-22T10:06:44;27.10;70.40
27803;DHT22;15182;48.174;11.562;2023-07-22T10:09:13;27.20;69.80
27803;DHT22;15182;48.174;11.562;2023-07-22T10:11:42;27.30;70.50
27803;DHT22;15182;48.174;11.562;2023-07-22T10:14:10;27.40;69.60
27803;DHT22;15182;48.174;11.562;2023-07-22T10:16:41;27.50;68.80
27803;DHT22;15182;48.174;11.562;2023-07-22T10:19:09;27.60;68.50
27803;DHT22;15182;48.174;11.562;2023-07-22T10:21:38;27.70;68.80
27803;DHT22;15182;48.174;11.562;2023-07-22T10:24:07;27.70;68.10
27803;DHT22;15182;48.174;11.562;2023-07-22T10:26:36;27.90;67.30
27803;DHT22;15182;48.174;11.562;2023-07-22T10:29:05;28.00;67.40
27803;DHT22;15182;48.174;11.562;2023-07-22T10:31:33;28.10;67.20
27803;DHT22;15182;48.174;11.562;2023-07-22T10:34:01;28.20;67.30
27803;DHT22;15182;48.174;11.562;2023-07-22T10:36:29;28.30;66.60
27803;DHT22;15182;48.174;11.562;2023-07-22T10:38:59;28.40;66.60
27803;DHT22;15182;48.174;11.562;2023-07-22T10:41:28;28.50;65.70
27803;DHT22;15182;48.174;11.562;2023-07-22T10:43:57;28.50;65.20
27803;DHT22;15182;48.174;11.562;2023-07-22T10:46:33;28.60;64.80
27803;DHT22;15182;48.174;11.562;2023-07-22T10:49:10;28.50;65.00
27803;DHT22;15182;48.174;11.562;2023-07-22T10:51:39;28.50;64.10
27803;DHT22;15182;48.174;11.562;2023-07-22T10:54:11;28.50;65.00
27803;DHT22;15182;48.174;11.562;2023-07-22T10:56:43;28.60;64.50
27803;DHT22;15182;48.174;11.562;2023-07-22T10:59:11;28.70;64.50
27803;DHT22;15182;48.174;11.562;2023-07-22T11:01:40;28.80;64.60
27803;DHT22;15182;48.174;11.562;2023-07-22T11:04:14;28.90;64.80
27803;DHT22;15182;48.174;11.562;2023-07-22T11:06:53;29.00;65.10
27803;DHT22;15182;48.174;11.562;2023-07-22T11:09:40;29.10;63.80
27803;DHT22;15182;48.174;11.562;2023-07-22T11:12:14;29.10;64.20
27803;DHT22;15182;48.174;11.562;2023-07-22T11:14:48;29.10;63.80
27803;DHT22;15182;48.174;11.562;2023-07-22T11:17:18;29.10;63.70
27803;DHT22;15182;48.174;11.562;2023-07-22T11:19:50;29.10;63.00
27803;DHT22;15182;48.174;11.562;2023-07-22T11:22:19;29.10;63.00
27803;DHT22;15182;48.174;11.562;2023-07-22T11:24:47;29.10;62.60
27803;DHT22;15182;48.174;11.562;2023-07-22T11:27:16;29.10;62.70
27803;DHT22;15182;48.174;11.562;2023-07-22T11:29:44;29.00;64.10
27803;DHT22;15182;48.174;11.562;2023-07-22T11:32:16;29.00;63.80
27803;DHT22;15182;48.174;11.562;2023-07-22T11:34:44;29.10;63.30
27803;DHT22;15182;48.174;11.562;2023-07-22T11:37:12;29.20;63.40
27803;DHT22;15182;48.174;11.562;2023-07-22T11:39:41;29.20;62.80
27803;DHT22;15182;48.174;11.562;2023-07-22T11:42:10;29.30;62.50
27803;DHT22;15182;48.174;11.562;2023-07-22T11:44:40;29.40;62.30
27803;DHT22;15182;48.174;11.562;2023-07-22T11:47:08;29.40;61.60
27803;DHT22;15182;48.174;11.562;2023-07-22T11:49:37;29.50;62.00
27803;DHT22;15182;48.174;11.562;2023-07-22T11:52:07;29.60;60.60
27803;DHT22;15182;48.174;11.562;2023-07-22T11:54:38;29.70;61.20
27803;DHT22;15182;48.174;11.562;2023-07-22T11:57:10;29.80;61.40
27803;DHT22;15182;48.174;11.562;2023-07-22T11:59:43;29.90;60.00
27803;DHT22;15182;48.174;11.562;2023-07-22T12:02:13;30.00;59.70
27803;DHT22;15182;48.174;11.562;2023-07-22T12:04:43;30.00;59.80
27803;DHT22;15182;48.174;11.562;2023-07-22T12:07:24;30.00;60.60
27803;DHT22;15182;48.174;11.562;2023-07-22T12:09:56;29.90;59.60
27803;DHT22;15182;48.174;11.562;2023-07-22T12:12:32;29.80;59.50
27803;DHT22;15182;48.174;11.562;2023-07-22T12:15:04;29.80;58.90
27803;DHT22;15182;48.174;11.562;2023-07-22T12:17:46;29.80;60.00
27803;DHT22;15182;48.174;11.562;2023-07-22T12:20:16;29.80;59.60
27803;DHT22;15182;48.174;11.562;2023-07-22T12:22:44;29.80;59.50
27803;DHT22;15182;48.174;11.562;2023-07-22T12:25:12;29.80;59.10
27803;DHT22;15182;48.174;11.562;2023-07-22T12:27:40;29.80;58.90
27803;DHT22;15182;48.174;11.562;2023-07-22T12:30:10;29.80;58.80
27803;DHT22;15182;48.174;11.562;2023-07-22T12:32:38;29.80;58.50
27803;DHT22;15182;48.174;11.562;2023-07-22T12:35:07;29.80;58.60
27803;DHT22;15182;48.174;11.562;2023-07-22T12:37:35;29.70;58.40
27803;DHT22;15182;48.174;11.562;2023-07-22T12:40:04;29.60;58.80
27803;DHT22;15182;48.174;11.562;2023-07-22T12:42:34;29.60;59.60
27803;DHT22;15182;48.174;11.562;2023-07-22T12:45:02;29.60;59.00
27803;DHT22;15182;48.174;11.562;2023-07-22T12:47:32;29.60;58.60
27803;DHT22;15182;48.174;11.562;2023-07-22T12:50:00;29.80;58.60
27803;DHT22;15182;48.174;11.562;2023-07-22T12:52:27;29.80;58.90
27803;DHT22;15182;48.174;11.562;2023-07-22T12:54:55;29.90;58.20
27803;DHT22;15182;48.174;11.562;2023-07-22T12:57:23;29.90;57.90
27803;DHT22;15182;48.174;11.562;2023-07-22T12:59:51;29.90;58.10
27803;DHT22;15182;48.174;11.562;2023-07-22T13:02:19;29.90;58.20
27803;DHT22;15182;48.174;11.562;2023-07-22T13:04:48;29.90;58.00
27803;DHT22;15182;48.174;11.562;2023-07-22T13:07:16;29.90;57.90
27803;DHT22;15182;48.174;11.562;2023-07-22T13:09:56;30.00;59.20
27803;DHT22;15182;48.174;11.562;2023-07-22T13:12:37;30.00;57.90
27803;DHT22;15182;48.174;11.562;2023-07-22T13:15:06;30.00;58.10
27803;DHT22;15182;48.174;11.562;2023-07-22T13:17:34;30.10;58.10
27803;DHT22;15182;48.174;11.562;2023-07-22T13:20:04;30.20;57.50
27803;DHT22;15182;48.174;11.562;2023-07-22T13:22:35;30.20;56.90
27803;DHT22;15182;48.174;11.562;2023-07-22T13:25:03;30.30;56.90
27803;DHT22;15182;48.174;11.562;2023-07-22T13:27:32;30.40;56.90
27803;DHT22;15182;48.174;11.562;2023-07-22T13:30:00;30.50;56.40
27803;DHT22;15182;48.174;11.562;2023-07-22T13:32:28;30.50;56.50
27803;DHT22;15182;48.174;11.562;2023-07-22T13:34:56;30.60;56.10
27803;DHT22;15182;48.174;11.562;2023-07-22T13:37:26;30.60;55.90
27803;DHT22;15182;48.174;11.562;2023-07-22T13:39:54;30.60;55.50
27803;DHT22;15182;48.174;11.562;2023-07-22T13:42:24;30.60;55.60
27803;DHT22;15182;48.174;11.562;2023-07-22T13:44:52;30.60;56.10
27803;DHT22;15182;48.174;11.562;2023-07-22T13:47:20;30.70;55.30
27803;DHT22;15182;48.174;11.562;2023-07-22T13:49:48;30.70;55.40
27803;DHT22;15182;48.174;11.562;2023-07-22T13:52:16;30.60;55.30
27803;DHT22;15182;48.174;11.562;2023-07-22T13:54:46;30.60;55.70
27803;DHT22;15182;48.174;11.562;2023-07-22T13:57:14;30.60;55.60
27803;DHT22;15182;48.174;11.562;2023-07-22T13:59:42;30.60;55.20
27803;DHT22;15182;48.174;11.562;2023-07-22T14:02:10;30.50;55.10
27803;DHT22;15182;48.174;11.562;2023-07-22T14:04:38;30.50;54.90
27803;DHT22;15182;48.174;11.562;2023-07-22T14:07:07;30.40;54.80
27803;DHT22;15182;48.174;11.562;2023-07-22T14:09:35;30.30;54.50
27803;DHT22;15182;48.174;11.562;2023-07-22T14:12:06;30.20;54.50
27803;DHT22;15182;48.174;11.562;2023-07-22T14:14:36;30.10;54.80
27803;DHT22;15182;48.174;11.562;2023-07-22T14:17:04;30.10;55.20
27803;DHT22;15182;48.174;11.562;2023-07-22T14:19:33;30.10;55.30
27803;DHT22;15182;48.174;11.562;2023-07-22T14:22:01;30.10;54.70
27803;DHT22;15182;48.174;11.562;2023-07-22T14:24:30;30.10;54.60
27803;DHT22;15182;48.174;11.562;2023-07-22T14:26:58;30.10;54.80
27803;DHT22;15182;48.174;11.562;2023-07-22T14:29:27;30.10;54.50
27803;DHT22;15182;48.174;11.562;2023-07-22T14:31:56;30.10;55.00
27803;DHT22;15182;48.174;11.562;2023-07-22T14:34:24;30.10;54.60
27803;DHT22;15182;48.174;11.562;2023-07-22T14:36:52;30.10;54.40
27803;DHT22;15182;48.174;11.562;2023-07-22T14:39:20;30.10;55.00
27803;DHT22;15182;48.174;11.562;2023-07-22T14:41:48;30.00;54.80
27803;DHT22;15182;48.174;11.562;2023-07-22T14:44:18;29.90;54.80
27803;DHT22;15182;48.174;11.562;2023-07-22T14:46:47;29.80;54.60
27803;DHT22;15182;48.174;11.562;2023-07-22T14:49:15;29.80;54.70
27803;DHT22;15182;48.174;11.562;2023-07-22T14:51:43;29.70;54.80
27803;DHT22;15182;48.174;11.562;2023-07-22T14:54:11;29.70;54.80
27803;DHT22;15182;48.174;11.562;2023-07-22T14:56:40;29.70;54.80
27803;DHT22;15182;48.174;11.562;2023-07-22T14:59:08;29.70;54.90
27803;DHT22;15182;48.174;11.562;2023-07-22T15:01:39;29.70;54.80
27803;DHT22;15182;48.174;11.562;2023-07-22T15:04:09;29.60;54.60
27803;DHT22;15182;48.174;11.562;2023-07-22T15:06:36;29.60;54.70
27803;DHT22;15182;48.174;11.562;2023-07-22T15:09:04;29.60;54.60
27803;DHT22;15182;48.174;11.562;2023-07-22T15:11:35;29.60;54.30
27803;DHT22;15182;48.174;11.562;2023-07-22T15:14:04;29.60;54.40
27803;DHT22;15182;48.174;11.562;2023-07-22T15:16:33;29.60;54.10
27803;DHT22;15182;48.174;11.562;2023-07-22T15:19:03;29.50;54.80
27803;DHT22;15182;48.174;11.562;2023-07-22T15:21:33;29.50;54.20
27803;DHT22;15182;48.174;11.562;2023-07-22T15:24:01;29.40;53.90
27803;DHT22;15182;48.174;11.562;2023-07-22T15:26:29;29.40;54.20
27803;DHT22;15182;48.174;11.562;2023-07-22T15:28:57;29.40;54.30
27803;DHT22;15182;48.174;11.562;2023-07-22T15:31:25;29.40;54.60
27803;DHT22;15182;48.174;11.562;2023-07-22T15:33:53;29.40;54.80
27803;DHT22;15182;48.174;11.562;2023-07-22T15:36:22;29.40;54.60
27803;DHT22;15182;48.174;11.562;2023-07-22T15:38:51;29.40;54.70
27803;DHT22;15182;48.174;11.562;2023-07-22T15:41:19;29.40;54.60